sensor_id;sensor_type;location;lat;lon;timestamp;pressure;altitude;pressure_sealevel;temperature;humidity
3598;BME280;1813;52.016;8.714;2023-05-01T00:00:20;-16261.94;;;-139.71;52.42
3598;BME280;1813;52.016;8.714;2023-05-01T00:02:57;-16261.94;;;-139.71;52.23
3598;BME280;1813;52.016;8.714;2023-05-01T00:05:34;-16261.94;;;-139.71;52.24
3598;BME280;1813;52.016;8.714;2023-05-01T00:08:09;-16261.94;;;-139.71;52.49
3598;BME280;1813;52.016;8.714;2023-05-01T00:10:43;-16261.94;;;-139.71;52.59
3598;BME280;1813;52.016;8.714;2023-05-01T00:13:20;-16261.94;;;-139.71;52.67
3598;BME280;1813;52.016;8.714;2023-05-01T00:15:55;-16261.94;;;-139.71;52.22
3598;BME280;1813;52.016;8.714;2023-05-01T00:18:29;-16261.94;;;-139.71;52.04
3598;BME280;1813;52.016;8.714;2023-05-01T00:21:07;-16261.94;;;-139.71;51.74
3598;BME280;1813;52.016;8.714;2023-05-01T00:23:41;-16261.94;;;-139.71;50.66
3598;BME280;1813;52.016;8.714;2023-05-01T00:26:15;-16261.94;;;-139.71;50.17
3598;BME280;1813;52.016;8.714;2023-05-01T00:28:51;-16261.94;;;-139.71;50.31
3598;BME280;1813;52.016;8.714;2023-05-01T00:31:26;-16261.94;;;-139.71;50.28
3598;BME280;1813;52.016;8.714;2023-05-01T00:34:00;-16261.94;;;-139.71;50.90
3598;BME280;1813;52.016;8.714;2023-05-01T00:36:38;-16261.94;;;-139.71;51.95
3598;BME280;1813;52.016;8.714;2023-05-01T00:39:12;-16261.94;;;-139.71;52.41
3598;BME280;1813;52.016;8.714;2023-05-01T00:41:46;-16261.94;;;-139.71;52.65
3598;BME280;1813;52.016;8.714;2023-05-01T00:44:20;-16261.94;;;-139.71;52.15
3598;BME280;1813;52.016;8.714;2023-05-01T00:46:56;-16261.94;;;-139.71;51.79
3598;BME280;1813;52.016;8.714;2023-05-01T00:49:32;-16261.94;;;-139.71;51.66
3598;BME280;1813;52.016;8.714;2023-05-01T00:52:10;-16261.94;;;-139.71;50.71
3598;BME280;1813;52.016;8.714;2023-05-01T00:54:44;-16261.94;;;-139.71;50.37
3598;BME280;1813;52.016;8.714;2023-05-01T00:57:22;-16261.94;;;-139.71;50.56
3598;BME280;1813;52.016;8.714;2023-05-01T00:59:56;-16261.94;;;-139.71;50.35
3598;BME280;1813;52.016;8.714;2023-05-01T01:02:30;-16261.94;;;-139.71;50.65
3598;BME280;1813;52.016;8.714;2023-05-01T01:05:05;-16261.94;;;-139.71;50.66
3598;BME280;1813;52.016;8.714;2023-05-01T01:07:49;-16261.94;;;-139.71;50.86
3598;BME280;1813;52.016;8.714;2023-05-01T01:10:32;-16261.94;;;-139.71;50.92
3598;BME280;1813;52.016;8.714;2023-05-01T01:13:16;-16261.94;;;-139.71;51.36
3598;BME280;1813;52.016;8.714;2023-05-01T01:15:58;-16261.94;;;-139.71;52.15
3598;BME280;1813;52.016;8.714;2023-05-01T01:18:42;-16261.94;;;-139.71;53.16
3598;BME280;1813;52.016;8.714;2023-05-01T01:21:22;-16261.94;;;-139.71;53.76
3598;BME280;1813;52.016;8.714;2023-05-01T01:24:35;-16261.94;;;-139.71;54.15
3598;BME280;1813;52.016;8.714;2023-05-01T01:27:44;-16261.94;;;-139.71;54.30
3598;BME280;1813;52.016;8.714;2023-05-01T01:30:36;-16261.94;;;-139.71;54.90
3598;BME280;1813;52.016;8.714;2023-05-01T01:33:48;-16261.94;;;-139.71;55.39
3598;BME280;1813;52.016;8.714;2023-05-01T01:36:33;-16261.94;;;-139.71;55.21
3598;BME280;1813;52.016;8.714;2023-05-01T01:39:15;-16261.94;;;-139.71;54.85
3598;BME280;1813;52.016;8.714;2023-05-01T01:41:56;-16261.94;;;-139.71;54.68
3598;BME280;1813;52.016;8.714;2023-05-01T01:44:36;-16261.94;;;-139.71;54.78
3598;BME280;1813;52.016;8.714;2023-05-01T01:47:13;-16261.94;;;-139.71;54.64
3598;BME280;1813;52.016;8.714;2023-05-01T01:49:54;-16261.94;;;-139.71;54.54
3598;BME280;1813;52.016;8.714;2023-05-01T01:52:29;-16261.94;;;-139.71;54.17
3598;BME280;1813;52.016;8.714;2023-05-01T01:55:08;-16261.94;;;-139.71;54.02
3598;BME280;1813;52.016;8.714;2023-05-01T01:57:44;-16261.94;;;-139.71;54.35
3598;BME280;1813;52.016;8.714;2023-05-01T02:00:21;-16261.94;;;-139.71;54.62
3598;BME280;1813;52.016;8.714;2023-05-01T02:02:57;-16261.94;;;-139.71;54.64
3598;BME280;1813;52.016;8.714;2023-05-01T02:05:36;-16261.94;;;-139.71;54.97
3598;BME280;1813;52.016;8.714;2023-05-01T02:08:13;-16261.94;;;-139.71;54.96
3598;BME280;1813;52.016;8.714;2023-05-01T02:10:47;-16261.94;;;-139.71;55.02
3598;BME280;1813;52.016;8.714;2023-05-01T02:13:28;-16261.94;;;-139.71;55.32
3598;BME280;1813;52.016;8.714;2023-05-01T02:16:05;-16261.94;;;-139.71;54.83
3598;BME280;1813;52.016;8.714;2023-05-01T02:18:39;-16261.94;;;-139.71;55.07
3598;BME280;1813;52.016;8.714;2023-05-01T02:21:17;-16261.94;;;-139.71;54.95
3598;BME280;1813;52.016;8.714;2023-05-01T02:23:53;-16261.94;;;-139.71;54.61
3598;BME280;1813;52.016;8.714;2023-05-01T02:26:28;-16261.94;;;-139.71;54.54
3598;BME280;1813;52.016;8.714;2023-05-01T02:29:04;-16261.94;;;-139.71;54.44
3598;BME280;1813;52.016;8.714;2023-05-01T02:31:40;-16261.94;;;-139.71;54.72
3598;BME280;1813;52.016;8.714;2023-05-01T02:34:14;-16261.94;;;-139.71;54.30
3598;BME280;1813;52.016;8.714;2023-05-01T02:36:51;-16261.94;;;-139.71;54.20
3598;BME280;1813;52.016;8.714;2023-05-01T02:39:25;-16261.94;;;-139.71;54.37
3598;BME280;1813;52.016;8.714;2023-05-01T02:42:01;-16261.94;;;-139.71;54.21
3598;BME280;1813;52.016;8.714;2023-05-01T02:44:39;-16261.94;;;-139.71;54.61
3598;BME280;1813;52.016;8.714;2023-05-01T02:47:17;-16261.94;;;-139.71;54.71
3598;BME280;1813;52.016;8.714;2023-05-01T02:49:53;-16261.94;;;-139.71;54.81
3598;BME280;1813;52.016;8.714;2023-05-01T02:52:31;-16261.94;;;-139.71;54.70
3598;BME280;1813;52.016;8.714;2023-05-01T02:55:28;-16261.94;;;-139.71;54.77
3598;BME280;1813;52.016;8.714;2023-05-01T02:58:02;-16261.94;;;-139.71;54.94
3598;BME280;1813;52.016;8.714;2023-05-01T03:00:36;-16261.94;;;-139.71;54.97
3598;BME280;1813;52.016;8.714;2023-05-01T03:03:11;-16261.94;;;-139.71;54.93
3598;BME280;1813;52.016;8.714;2023-05-01T03:05:46;-16261.94;;;-139.71;54.95
3598;BME280;1813;52.016;8.714;2023-05-01T03:08:24;-16261.94;;;-139.71;54.97
3598;BME280;1813;52.016;8.714;2023-05-01T03:10:58;-16261.94;;;-139.71;55.20
3598;BME280;1813;52.016;8.714;2023-05-01T03:13:33;-16261.94;;;-139.71;55.66
3598;BME280;1813;52.016;8.714;2023-05-01T03:16:07;-16261.94;;;-139.71;56.25
3598;BME280;1813;52.016;8.714;2023-05-01T03:18:42;-16261.94;;;-139.71;56.81
3598;BME280;1813;52.016;8.714;2023-05-01T03:21:17;-16261.94;;;-139.71;57.00
3598;BME280;1813;52.016;8.714;2023-05-01T03:23:55;-16261.94;;;-139.71;56.74
3598;BME280;1813;52.016;8.714;2023-05-01T03:26:30;-16261.94;;;-139.71;56.36
3598;BME280;1813;52.016;8.714;2023-05-01T03:29:06;-16261.94;;;-139.71;55.89
3598;BME280;1813;52.016;8.714;2023-05-01T03:31:43;-16261.94;;;-139.71;55.75
3598;BME280;1813;52.016;8.714;2023-05-01T03:34:18;-16261.94;;;-139.71;55.50
3598;BME280;1813;52.016;8.714;2023-05-01T03:36:52;-16261.94;;;-139.71;55.38
3598;BME280;1813;52.016;8.714;2023-05-01T03:39:32;-16261.94;;;-139.71;55.43
3598;BME280;1813;52.016;8.714;2023-05-01T03:42:25;-16261.94;;;-139.71;55.90
3598;BME280;1813;52.016;8.714;2023-05-01T03:45:06;-16261.94;;;-139.71;57.06
3598;BME280;1813;52.016;8.714;2023-05-01T03:47:40;-16261.94;;;-139.71;58.17
3598;BME280;1813;52.016;8.714;2023-05-01T03:50:15;-16261.94;;;-139.71;58.34
3598;BME280;1813;52.016;8.714;2023-05-01T03:52:55;-16261.94;;;-139.71;58.28
3598;BME280;1813;52.016;8.714;2023-05-01T03:55:32;-16261.94;;;-139.71;58.28
3598;BME280;1813;52.016;8.714;2023-05-01T03:58:07;-16261.94;;;-139.71;58.39
3598;BME280;1813;52.016;8.714;2023-05-01T04:00:41;-16261.94;;;-139.71;58.28
3598;BME280;1813;52.016;8.714;2023-05-01T04:03:15;-16261.94;;;-139.71;57.88
3598;BME280;1813;52.016;8.714;2023-05-01T04:05:52;-16261.94;;;-139.71;57.17
3598;BME280;1813;52.016;8.714;2023-05-01T04:08:26;-16261.94;;;-139.71;57.15
3598;BME280;1813;52.016;8.714;2023-05-01T04:11:05;-16261.94;;;-139.71;57.61
3598;BME280;1813;52.016;8.714;2023-05-01T04:13:40;-16261.94;;;-139.71;57.86
3598;BME280;1813;52.016;8.714;2023-05-01T04:16:16;-16261.94;;;-139.71;57.61
3598;BME280;1813;52.016;8.714;2023-05-01T04:18:51;-16261.94;;;-139.71;57.85
3598;BME280;1813;52.016;8.714;2023-05-01T04:21:26;-16261.94;;;-139.71;57.82
3598;BME280;1813;52.016;8.714;2023-05-01T04:24:00;-16261.94;;;-139.71;58.16
3598;BME280;1813;52.016;8.714;2023-05-01T04:26:37;-16261.94;;;-139.71;58.12
3598;BME280;1813;52.016;8.714;2023-05-01T04:29:13;-16261.94;;;-139.71;58.20
3598;BME280;1813;52.016;8.714;2023-05-01T04:31:48;-16261.94;;;-139.71;57.83
3598;BME280;1813;52.016;8.714;2023-05-01T04:34:22;-16261.94;;;-139.71;57.87
3598;BME280;1813;52.016;8.714;2023-05-01T04:36:59;-16261.94;;;-139.71;58.16
3598;BME280;1813;52.016;8.714;2023-05-01T04:39:34;-16261.94;;;-139.71;58.22
3598;BME280;1813;52.016;8.714;2023-05-01T04:42:11;-16261.94;;;-139.71;57.86
3598;BME280;1813;52.016;8.714;2023-05-01T04:44:45;-16261.94;;;-139.71;57.18
3598;BME280;1813;52.016;8.714;2023-05-01T04:47:20;-16261.94;;;-139.71;55.99
3598;BME280;1813;52.016;8.714;2023-05-01T04:49:54;-16261.94;;;-139.71;55.47
3598;BME280;1813;52.016;8.714;2023-05-01T04:52:28;-16261.94;;;-139.71;54.90
3598;BME280;1813;52.016;8.714;2023-05-01T04:55:08;-16261.94;;;-139.71;54.70
3598;BME280;1813;52.016;8.714;2023-05-01T04:57:54;-16261.94;;;-139.71;54.75
3598;BME280;1813;52.016;8.714;2023-05-01T05:00:28;-16261.94;;;-139.71;54.51
3598;BME280;1813;52.016;8.714;2023-05-01T05:03:02;-16261.94;;;-139.71;54.41
3598;BME280;1813;52.016;8.714;2023-05-01T05:05:37;-16261.94;;;-139.71;54.49
3598;BME280;1813;52.016;8.714;2023-05-01T05:08:11;-16261.94;;;-139.71;54.84
3598;BME280;1813;52.016;8.714;2023-05-01T05:10:55;-16261.94;;;-139.71;55.14
3598;BME280;1813;52.016;8.714;2023-05-01T05:13:52;-16261.94;;;-139.71;55.50
3598;BME280;1813;52.016;8.714;2023-05-01T05:16:27;-16261.94;;;-139.71;55.72
3598;BME280;1813;52.016;8.714;2023-05-01T05:19:01;-16261.94;;;-139.71;55.58
3598;BME280;1813;52.016;8.714;2023-05-01T05:21:40;-16261.94;;;-139.71;55.32
3598;BME280;1813;52.016;8.714;2023-05-01T05:24:14;-16261.94;;;-139.71;55.19
3598;BME280;1813;52.016;8.714;2023-05-01T05:26:48;-16261.94;;;-139.71;55.22
3598;BME280;1813;52.016;8.714;2023-05-01T05:29:25;-16261.94;;;-139.71;55.38
3598;BME280;1813;52.016;8.714;2023-05-01T05:32:00;-16261.94;;;-139.71;55.29
3598;BME280;1813;52.016;8.714;2023-05-01T05:34:36;-16261.94;;;-139.71;56.13
3598;BME280;1813;52.016;8.714;2023-05-01T05:37:11;-16261.94;;;-139.71;55.91
3598;BME280;1813;52.016;8.714;2023-05-01T05:39:53;-16261.94;;;-139.71;55.47
3598;BME280;1813;52.016;8.714;2023-05-01T05:42:28;-16261.94;;;-139.71;54.42
3598;BME280;1813;52.016;8.714;2023-05-01T05:45:11;-16261.94;;;-139.71;53.99
3598;BME280;1813;52.016;8.714;2023-05-01T05:47:46;-16261.94;;;-139.71;54.12
3598;BME280;1813;52.016;8.714;2023-05-01T05:50:26;-16261.94;;;-139.71;54.08
3598;BME280;1813;52.016;8.714;2023-05-01T05:53:00;-16261.94;;;-139.71;53.98
3598;BME280;1813;52.016;8.714;2023-05-01T05:55:35;-16261.94;;;-139.71;52.94
3598;BME280;1813;52.016;8.714;2023-05-01T05:58:12;-16261.94;;;-139.71;53.07
3598;BME280;1813;52.016;8.714;2023-05-01T06:00:53;-16261.94;;;-139.71;52.37
3598;BME280;1813;52.016;8.714;2023-05-01T06:03:28;-16261.94;;;-139.71;52.16
3598;BME280;1813;52.016;8.714;2023-05-01T06:06:05;-16261.94;;;-139.71;52.32
3598;BME280;1813;52.016;8.714;2023-05-01T06:08:39;-16261.94;;;-139.71;51.50
3598;BME280;1813;52.016;8.714;2023-05-01T06:11:16;-16261.94;;;-139.71;51.35
3598;BME280;1813;52.016;8.714;2023-05-01T06:13:51;-16261.94;;;-139.71;51.18
3598;BME280;1813;52.016;8.714;2023-05-01T06:16:30;-16261.94;;;-139.71;50.68
3598;BME280;1813;52.016;8.714;2023-05-01T06:19:05;-16261.94;;;-139.71;50.84
3598;BME280;1813;52.016;8.714;2023-05-01T06:21:44;-16261.94;;;-139.71;50.80
3598;BME280;1813;52.016;8.714;2023-05-01T06:24:19;-16261.94;;;-139.71;50.89
3598;BME280;1813;52.016;8.714;2023-05-01T06:26:56;-16261.94;;;-139.71;50.74
3598;BME280;1813;52.016;8.714;2023-05-01T06:29:31;-16261.94;;;-139.71;51.09
3598;BME280;1813;52.016;8.714;2023-05-01T06:32:10;-16261.94;;;-139.71;52.79
3598;BME280;1813;52.016;8.714;2023-05-01T06:34:45;-16261.94;;;-139.71;54.06
3598;BME280;1813;52.016;8.714;2023-05-01T06:37:19;-16261.94;;;-139.71;54.05
3598;BME280;1813;52.016;8.714;2023-05-01T06:39:54;-16261.94;;;-139.71;54.39
3598;BME280;1813;52.016;8.714;2023-05-01T06:42:29;-16261.94;;;-139.71;53.98
3598;BME280;1813;52.016;8.714;2023-05-01T06:45:07;-16261.94;;;-139.71;52.86
3598;BME280;1813;52.016;8.714;2023-05-01T06:47:44;-16261.94;;;-139.71;52.67
3598;BME280;1813;52.016;8.714;2023-05-01T06:50:18;-16261.94;;;-139.71;51.76
3598;BME280;1813;52.016;8.714;2023-05-01T06:52:52;-16261.94;;;-139.71;51.23
3598;BME280;1813;52.016;8.714;2023-05-01T06:55:27;-16261.94;;;-139.71;51.49
3598;BME280;1813;52.016;8.714;2023-05-01T06:58:03;-16261.94;;;-139.71;51.76
3598;BME280;1813;52.016;8.714;2023-05-01T07:00:41;-16261.94;;;-139.71;51.17
3598;BME280;1813;52.016;8.714;2023-05-01T07:03:19;-16261.94;;;-139.71;50.42
3598;BME280;1813;52.016;8.714;2023-05-01T07:05:53;-16261.94;;;-139.71;49.56
3598;BME280;1813;52.016;8.714;2023-05-01T07:08:31;-16261.94;;;-139.71;49.37
3598;BME280;1813;52.016;8.714;2023-05-01T07:11:08;-16261.94;;;-139.71;49.51
3598;BME280;1813;52.016;8.714;2023-05-01T07:13:43;-16261.94;;;-139.71;49.44
3598;BME280;1813;52.016;8.714;2023-05-01T07:16:17;-16261.94;;;-139.71;48.64
3598;BME280;1813;52.016;8.714;2023-05-01T07:18:54;-16261.94;;;-139.71;47.85
3598;BME280;1813;52.016;8.714;2023-05-01T07:21:28;-16261.94;;;-139.71;46.38
3598;BME280;1813;52.016;8.714;2023-05-01T07:24:03;-16261.94;;;-139.71;47.75
3598;BME280;1813;52.016;8.714;2023-05-01T07:26:38;-16261.94;;;-139.71;47.30
3598;BME280;1813;52.016;8.714;2023-05-01T07:29:12;-16261.94;;;-139.71;45.37
3598;BME280;1813;52.016;8.714;2023-05-01T07:31:46;-16261.94;;;-139.71;43.78
3598;BME280;1813;52.016;8.714;2023-05-01T07:34:23;-16261.94;;;-139.71;42.70
3598;BME280;1813;52.016;8.714;2023-05-01T07:36:58;-16261.94;;;-139.71;43.71
3598;BME280;1813;52.016;8.714;2023-05-01T07:39:34;-16261.94;;;-139.71;43.36
3598;BME280;1813;52.016;8.714;2023-05-01T07:42:08;-16261.94;;;-139.71;42.75
3598;BME280;1813;52.016;8.714;2023-05-01T07:44:42;-16261.94;;;-139.71;41.17
3598;BME280;1813;52.016;8.714;2023-05-01T07:47:16;-16261.94;;;-139.71;41.22
3598;BME280;1813;52.016;8.714;2023-05-01T07:49:54;-16261.94;;;-139.71;41.13
3598;BME280;1813;52.016;8.714;2023-05-01T07:52:28;-16261.94;;;-139.71;41.58
3598;BME280;1813;52.016;8.714;2023-05-01T07:55:02;-16261.94;;;-139.71;40.83
3598;BME280;1813;52.016;8.714;2023-05-01T07:57:37;-16261.94;;;-139.71;39.64
3598;BME280;1813;52.016;8.714;2023-05-01T08:00:14;-16261.94;;;-139.71;40.19
3598;BME280;1813;52.016;8.714;2023-05-01T08:02:50;-16261.94;;;-139.71;39.41
3598;BME280;1813;52.016;8.714;2023-05-01T08:05:27;-16261.94;;;-139.71;39.63
3598;BME280;1813;52.016;8.714;2023-05-01T08:08:02;-16261.94;;;-139.71;38.98
3598;BME280;1813;52.016;8.714;2023-05-01T08:10:37;-16261.94;;;-139.71;39.54
3598;BME280;1813;52.016;8.714;2023-05-01T08:13:11;-16261.94;;;-139.71;38.68
3598;BME280;1813;52.016;8.714;2023-05-01T08:15:46;-16261.94;;;-139.71;39.15
3598;BME280;1813;52.016;8.714;2023-05-01T08:18:20;-16261.94;;;-139.71;37.98
3598;BME280;1813;52.016;8.714;2023-05-01T08:20:58;-16261.94;;;-139.71;38.12
3598;BME280;1813;52.016;8.714;2023-05-01T08:23:34;-16261.94;;;-139.71;37.28
3598;BME280;1813;52.016;8.714;2023-05-01T08:26:09;-16261.94;;;-139.71;37.33
3598;BME280;1813;52.016;8.714;2023-05-01T08:28:43;-16261.94;;;-139.71;37.98
3598;BME280;1813;52.016;8.714;2023-05-01T08:31:18;-16261.94;;;-139.71;37.64
3598;BME280;1813;52.016;8.714;2023-05-01T08:33:54;-16261.94;;;-139.71;37.37
3598;BME280;1813;52.016;8.714;2023-05-01T08:36:31;-16261.94;;;-139.71;36.52
3598;BME280;1813;52.016;8.714;2023-05-01T08:39:06;-16261.94;;;-139.71;36.84
3598;BME280;1813;52.016;8.714;2023-05-01T08:41:44;-16261.94;;;-139.71;37.35
3598;BME280;1813;52.016;8.714;2023-05-01T08:44:19;-16261.94;;;-139.71;38.23
3598;BME280;1813;52.016;8.714;2023-05-01T08:47:05;-16261.94;;;-139.71;38.24
3598;BME280;1813;52.016;8.714;2023-05-01T08:49:41;-16261.94;;;-139.71;37.19
3598;BME280;1813;52.016;8.714;2023-05-01T08:52:19;-16261.94;;;-139.71;39.13
3598;BME280;1813;52.016;8.714;2023-05-01T08:54:55;-16261.94;;;-139.71;36.85
3598;BME280;1813;52.016;8.714;2023-05-01T08:57:31;-16261.94;;;-139.71;37.53
3598;BME280;1813;52.016;8.714;2023-05-01T09:00:10;-16261.94;;;-139.71;37.27
3598;BME280;1813;52.016;8.714;2023-05-01T09:02:48;-16261.94;;;-139.71;37.20
3598;BME280;1813;52.016;8.714;2023-05-01T09:05:23;-16261.94;;;-139.71;37.25
3598;BME280;1813;52.016;8.714;2023-05-01T09:08:02;-16261.94;;;-139.71;38.64
3598;BME280;1813;52.016;8.714;2023-05-01T09:10:40;-16261.94;;;-139.71;39.05
3598;BME280;1813;52.016;8.714;2023-05-01T09:13:15;-16261.94;;;-139.71;38.33
3598;BME280;1813;52.016;8.714;2023-05-01T09:15:50;-16261.94;;;-139.71;38.38
3598;BME280;1813;52.016;8.714;2023-05-01T09:18:25;-16261.94;;;-139.71;37.53
3598;BME280;1813;52.016;8.714;2023-05-01T09:21:01;-16261.94;;;-139.71;37.64
3598;BME280;1813;52.016;8.714;2023-05-01T09:23:38;-16261.94;;;-139.71;37.25
3598;BME280;1813;52.016;8.714;2023-05-01T09:26:13;-16261.94;;;-139.71;36.88
3598;BME280;1813;52.016;8.714;2023-05-01T09:28:48;-16261.94;;;-139.71;36.66
3598;BME280;1813;52.016;8.714;2023-05-01T09:31:29;-16261.94;;;-139.71;37.85
3598;BME280;1813;52.016;8.714;2023-05-01T09:34:05;-16261.94;;;-139.71;38.29
3598;BME280;1813;52.016;8.714;2023-05-01T09:36:44;-16261.94;;;-139.71;38.35
3598;BME280;1813;52.016;8.714;2023-05-01T09:39:24;-16261.94;;;-139.71;38.67
3598;BME280;1813;52.016;8.714;2023-05-01T09:41:59;-16261.94;;;-139.71;37.35
3598;BME280;1813;52.016;8.714;2023-05-01T09:44:40;-16261.94;;;-139.71;38.36
3598;BME280;1813;52.016;8.714;2023-05-01T09:47:21;-16261.94;;;-139.71;37.33
3598;BME280;1813;52.016;8.714;2023-05-01T09:49:58;-16261.94;;;-139.71;37.27
3598;BME280;1813;52.016;8.714;2023-05-01T09:52:32;-16261.94;;;-139.71;36.56
3598;BME280;1813;52.016;8.714;2023-05-01T09:55:17;-16261.94;;;-139.71;36.30
3598;BME280;1813;52.016;8.714;2023-05-01T09:57:52;-16261.94;;;-139.71;34.69
3598;BME280;1813;52.016;8.714;2023-05-01T10:00:28;-16261.94;;;-139.71;34.88
3598;BME280;1813;52.016;8.714;2023-05-01T10:03:12;-16261.94;;;-139.71;36.11
3598;BME280;1813;52.016;8.714;2023-05-01T10:05:47;-16261.94;;;-139.71;36.22
3598;BME280;1813;52.016;8.714;2023-05-01T10:08:21;-16261.94;;;-139.71;35.84
3598;BME280;1813;52.016;8.714;2023-05-01T10:11:03;-16261.94;;;-139.71;35.38
3598;BME280;1813;52.016;8.714;2023-05-01T10:13:38;-16261.94;;;-139.71;35.82
3598;BME280;1813;52.016;8.714;2023-05-01T10:16:36;-16261.94;;;-139.71;33.64
3598;BME280;1813;52.016;8.714;2023-05-01T10:19:11;-16261.94;;;-139.71;33.94
3598;BME280;1813;52.016;8.714;2023-05-01T10:21:46;-16261.94;;;-139.71;33.03
3598;BME280;1813;52.016;8.714;2023-05-01T10:24:20;-16261.94;;;-139.71;33.26
3598;BME280;1813;52.016;8.714;2023-05-01T10:26:58;-16261.94;;;-139.71;33.82
3598;BME280;1813;52.016;8.714;2023-05-01T10:29:36;-16261.94;;;-139.71;33.98
3598;BME280;1813;52.016;8.714;2023-05-01T10:32:11;-16261.94;;;-139.71;32.50
3598;BME280;1813;52.016;8.714;2023-05-01T10:34:48;-16261.94;;;-139.71;32.27
3598;BME280;1813;52.016;8.714;2023-05-01T10:37:30;-16261.94;;;-139.71;32.01
3598;BME280;1813;52.016;8.714;2023-05-01T10:43:22;-16261.94;;;-139.71;33.56
3598;BME280;1813;52.016;8.714;2023-05-01T10:49:09;-16261.94;;;-139.71;32.89
3598;BME280;1813;52.016;8.714;2023-05-01T10:51:57;-16261.94;;;-139.71;32.60
3598;BME280;1813;52.016;8.714;2023-05-01T10:54:34;-16261.94;;;-139.71;32.89
3598;BME280;1813;52.016;8.714;2023-05-01T11:00:22;-16261.94;;;-139.71;33.46
3598;BME280;1813;52.016;8.714;2023-05-01T11:06:06;-16261.94;;;-139.71;32.88
3598;BME280;1813;52.016;8.714;2023-05-01T11:08:40;-16261.94;;;-139.71;32.88
3598;BME280;1813;52.016;8.714;2023-05-01T11:11:45;-16261.94;;;-139.71;32.83
3598;BME280;1813;52.016;8.714;2023-05-01T11:14:22;-16261.94;;;-139.71;32.78
3598;BME280;1813;52.016;8.714;2023-05-01T11:16:59;-16261.94;;;-139.71;33.15
3598;BME280;1813;52.016;8.714;2023-05-01T11:19:48;-16261.94;;;-139.71;31.93
3598;BME280;1813;52.016;8.714;2023-05-01T11:22:23;-16261.94;;;-139.71;32.54
3598;BME280;1813;52.016;8.714;2023-05-01T11:24:57;-16261.94;;;-139.71;33.63
3598;BME280;1813;52.016;8.714;2023-05-01T11:27:34;-16261.94;;;-139.71;34.15
3598;BME280;1813;52.016;8.714;2023-05-01T11:30:11;-16261.94;;;-139.71;33.32
3598;BME280;1813;52.016;8.714;2023-05-01T11:32:49;-16261.94;;;-139.71;33.52
3598;BME280;1813;52.016;8.714;2023-05-01T11:35:25;-16261.94;;;-139.71;33.03
3598;BME280;1813;52.016;8.714;2023-05-01T11:38:00;-16261.94;;;-139.71;33.40
3598;BME280;1813;52.016;8.714;2023-05-01T11:40:34;-16261.94;;;-139.71;32.94
3598;BME280;1813;52.016;8.714;2023-05-01T11:43:08;-16261.94;;;-139.71;31.49
3598;BME280;1813;52.016;8.714;2023-05-01T11:45:43;-16261.94;;;-139.71;32.44
3598;BME280;1813;52.016;8.714;2023-05-01T11:48:20;-16261.94;;;-139.71;33.40
3598;BME280;1813;52.016;8.714;2023-05-01T11:50:55;-16261.94;;;-139.71;33.66
3598;BME280;1813;52.016;8.714;2023-05-01T11:53:29;-16261.94;;;-139.71;33.45
3598;BME280;1813;52.016;8.714;2023-05-01T11:56:17;-16261.94;;;-139.71;32.87
3598;BME280;1813;52.016;8.714;2023-05-01T11:58:53;-16261.94;;;-139.71;33.60
3598;BME280;1813;52.016;8.714;2023-05-01T12:01:36;-16261.94;;;-139.71;31.68
3598;BME280;1813;52.016;8.714;2023-05-01T12:04:23;-16261.94;;;-139.71;32.08
3598;BME280;1813;52.016;8.714;2023-05-01T12:07:00;-16261.94;;;-139.71;30.87
3598;BME280;1813;52.016;8.714;2023-05-01T12:09:34;-16261.94;;;-139.71;30.60
3598;BME280;1813;52.016;8.714;2023-05-01T12:12:09;-16261.94;;;-139.71;31.12
3598;BME280;1813;52.016;8.714;2023-05-01T12:14:44;-16261.94;;;-139.71;30.54
3598;BME280;1813;52.016;8.714;2023-05-01T12:17:21;-16261.94;;;-139.71;31.42
3598;BME280;1813;52.016;8.714;2023-05-01T12:19:59;-16261.94;;;-139.71;32.10
3598;BME280;1813;52.016;8.714;2023-05-01T12:22:34;-16261.94;;;-139.71;32.04
3598;BME280;1813;52.016;8.714;2023-05-01T12:25:09;-16261.94;;;-139.71;30.76
3598;BME280;1813;52.016;8.714;2023-05-01T12:27:44;-16261.94;;;-139.71;30.44
3598;BME280;1813;52.016;8.714;2023-05-01T12:30:23;-16261.94;;;-139.71;30.74
3598;BME280;1813;52.016;8.714;2023-05-01T12:32:57;-16261.94;;;-139.71;30.66
3598;BME280;1813;52.016;8.714;2023-05-01T12:35:36;-16261.94;;;-139.71;31.78
3598;BME280;1813;52.016;8.714;2023-05-01T12:38:13;-16261.94;;;-139.71;31.24
3598;BME280;1813;52.016;8.714;2023-05-01T12:40:51;-16261.94;;;-139.71;32.13
3598;BME280;1813;52.016;8.714;2023-05-01T12:43:30;-16261.94;;;-139.71;31.51
3598;BME280;1813;52.016;8.714;2023-05-01T12:46:05;-16261.94;;;-139.71;30.87
3598;BME280;1813;52.016;8.714;2023-05-01T12:48:42;-16261.94;;;-139.71;31.27
3598;BME280;1813;52.016;8.714;2023-05-01T12:51:23;-16261.94;;;-139.71;30.46
3598;BME280;1813;52.016;8.714;2023-05-01T12:53:58;-16261.94;;;-139.71;30.41
3598;BME280;1813;52.016;8.714;2023-05-01T12:56:32;-16261.94;;;-139.71;30.28
3598;BME280;1813;52.016;8.714;2023-05-01T12:59:06;-16261.94;;;-139.71;30.25
3598;BME280;1813;52.016;8.714;2023-05-01T13:01:56;-16261.94;;;-139.71;30.10
3598;BME280;1813;52.016;8.714;2023-05-01T13:04:32;-16261.94;;;-139.71;30.32
3598;BME280;1813;52.016;8.714;2023-05-01T13:07:14;-16261.94;;;-139.71;30.31
3598;BME280;1813;52.016;8.714;2023-05-01T13:09:53;-16261.94;;;-139.71;30.54
3598;BME280;1813;52.016;8.714;2023-05-01T13:12:29;-16261.94;;;-139.71;31.69
3598;BME280;1813;52.016;8.714;2023-05-01T13:15:06;-16261.94;;;-139.71;31.97
3598;BME280;1813;52.016;8.714;2023-05-01T13:17:41;-16261.94;;;-139.71;31.13
3598;BME280;1813;52.016;8.714;2023-05-01T13:20:24;-16261.94;;;-139.71;30.94
3598;BME280;1813;52.016;8.714;2023-05-01T13:23:09;-16261.94;;;-139.71;31.06
3598;BME280;1813;52.016;8.714;2023-05-01T13:25:45;-16261.94;;;-139.71;30.33
3598;BME280;1813;52.016;8.714;2023-05-01T13:28:20;-16261.94;;;-139.71;30.32
3598;BME280;1813;52.016;8.714;2023-05-01T13:30:55;-16261.94;;;-139.71;29.22
3598;BME280;1813;52.016;8.714;2023-05-01T13:33:30;-16261.94;;;-139.71;29.34
3598;BME280;1813;52.016;8.714;2023-05-01T13:36:07;-16261.94;;;-139.71;29.07
3598;BME280;1813;52.016;8.714;2023-05-01T13:38:45;-16261.94;;;-139.71;30.80
3598;BME280;1813;52.016;8.714;2023-05-01T13:41:21;-16261.94;;;-139.71;30.68
3598;BME280;1813;52.016;8.714;2023-05-01T13:43:56;-16261.94;;;-139.71;30.70
3598;BME280;1813;52.016;8.714;2023-05-01T13:46:31;-16261.94;;;-139.71;29.70
3598;BME280;1813;52.016;8.714;2023-05-01T13:49:06;-16261.94;;;-139.71;29.26
3598;BME280;1813;52.016;8.714;2023-05-01T13:51:43;-16261.94;;;-139.71;29.40
3598;BME280;1813;52.016;8.714;2023-05-01T13:54:21;-16261.94;;;-139.71;28.80